Time;durP1;ratioP1;P1;durP2;ratioP2;P2;SDS_P1;SDS_P2;PMS_P1;PMS_P2;Temp;Humidity;BMP_temperature;BMP_pressure;BME280_temperature;BME280_humidity;BME280_pressure;Samples;Min_cycle;Max_cycle;Signal;HPM_P1;HPM_P2
2020/12/03 00:01:10;;;;;;;135.10;34.83;;;;;;;-2.51;100.00;98025.66;4976681;28;20042;-85
2020/12/03 00:03:55;;;;;;;256.52;37.28;;;;;;;-2.66;100.00;98025.69;4976665;28;20026;-86
2020/12/03 00:06:43;;;;;;;130.70;31.63;;;;;;;-2.61;100.00;98032.66;4993267;28;20018;-87
2020/12/03 00:09:14;;;;;;;156.65;36.90;;;;;;;-2.55;100.00;98039.66;4976752;28;20475;-86
2020/12/03 00:11:53;;;;;;;132.35;32.63;;;;;;;-2.56;100.00;98032.66;4976521;28;20109;-86
2020/12/03 00:14:19;;;;;;;151.40;32.90;;;;;;;-2.76;100.00;98038.81;4976661;28;20030;-86
2020/12/03 00:16:46;;;;;;;164.40;33.50;;;;;;;-2.77;100.00;98046.69;4976684;28;20033;-86
2020/12/03 00:19:13;;;;;;;168.65;33.78;;;;;;;-2.76;100.00;98041.41;4976334;28;20062;-86
2020/12/03 00:21:42;;;;;;;157.90;33.78;;;;;;;-2.66;100.00;98057.97;4976469;28;20026;-87
2020/12/03 00:24:09;;;;;;;154.57;33.13;;;;;;;-2.69;100.00;98058.00;4976942;28;20490;-84
2020/12/03 00:26:35;;;;;;;193.05;33.42;;;;;;;-2.67;100.00;98058.84;4976881;28;20033;-86
2020/12/03 00:29:01;;;;;;;114.90;30.88;;;;;;;-2.68;100.00;98044.03;5008392;28;20414;-87
2020/12/03 00:31:27;;;;;;;218.80;32.13;;;;;;;-2.68;100.00;98049.28;4996099;28;20056;-87
2020/12/03 00:33:53;;;;;;;191.13;31.77;;;;;;;-2.60;100.00;98062.31;4995763;28;20038;-86
2020/12/03 00:36:20;;;;;;;121.32;29.83;;;;;;;-2.58;100.00;98052.75;4994923;28;20045;-85
2020/12/03 00:38:47;;;;;;;136.98;30.98;;;;;;;-2.59;100.00;98053.59;4995363;28;20521;-86
2020/12/03 00:41:13;;;;;;;130.85;31.08;;;;;;;-2.62;100.00;98053.63;5011765;28;20044;-85
2020/12/03 00:43:39;;;;;;;198.75;38.63;;;;;;;-2.55;100.00;98065.84;4995588;28;20478;-86
2020/12/03 00:46:05;;;;;;;138.23;32.28;;;;;;;-2.51;100.00;98057.06;5011639;28;20036;-85
2020/12/03 00:48:31;;;;;;;106.45;31.42;;;;;;;-2.45;100.00;98057.94;5011621;28;20486;-85
2020/12/03 00:50:56;;;;;;;99.95;28.60;;;;;;;-2.67;100.00;98047.50;4995024;28;20029;-86
2020/12/03 00:53:22;;;;;;;275.25;31.63;;;;;;;-2.74;100.00;98059.75;4995533;28;20087;-86
2020/12/03 00:55:48;;;;;;;101.10;27.45;;;;;;;-2.65;100.00;98059.75;4995486;28;20040;-86
2020/12/03 00:58:14;;;;;;;145.80;29.23;;;;;;;-2.79;100.00;98057.13;4995525;28;20042;-85
2020/12/03 01:00:39;;;;;;;198.90;31.92;;;;;;;-2.97;100.00;98054.53;4995730;28;20064;-86
2020/12/03 01:03:06;;;;;;;152.57;32.15;;;;;;;-3.02;100.00;98047.56;4995124;28;20068;-85
2020/12/03 01:05:32;;;;;;;133.00;30.58;;;;;;;-3.01;100.00;98044.94;5011392;28;20517;-85
2020/12/03 01:07:58;;;;;;;157.88;30.27;;;;;;;-3.05;100.00;98051.06;4995354;28;20036;-86
2020/12/03 01:10:30;;;;;;;146.52;30.25;;;;;;;-2.97;100.00;98044.06;4995363;28;20057;-86
2020/12/03 01:12:56;;;;;;;;;;;;;;;-2.88;100.00;98049.28;4996374;28;20734;-85
2020/12/03 01:15:23;;;;;;;167.57;33.65;;;;;;;-2.98;100.00;98042.31;5011605;28;19972;-86
2020/12/03 01:17:48;;;;;;;139.20;29.90;;;;;;;-2.86;100.00;98046.69;4995368;28;20394;-87
2020/12/03 01:20:17;;;;;;;197.68;43.70;;;;;;;-2.84;100.00;98043.19;4995011;28;20041;-86
2020/12/03 01:22:43;;;;;;;108.93;31.65;;;;;;;-2.80;100.00;98023.97;4995560;28;20417;-87
2020/12/03 01:25:09;;;;;;;111.65;30.65;;;;;;;-2.71;100.00;98032.69;4995225;28;20029;-87
2020/12/03 01:27:36;;;;;;;145.60;33.00;;;;;;;-2.76;100.00;98030.94;4994595;28;20060;-85
2020/12/03 01:30:03;;;;;;;188.75;33.05;;;;;;;-2.80;100.00;98034.44;4994799;28;20037;-85
2020/12/03 01:32:29;;;;;;;125.38;32.42;;;;;;;-2.75;100.00;98024.84;4993107;28;20394;-86
2020/12/03 01:34:55;;;;;;;112.40;28.95;;;;;;;-2.75;100.00;98022.25;4999899;28;20097;-85
2020/12/03 01:37:20;;;;;;;161.27;28.42;;;;;;;-2.72;100.00;98028.31;4973168;28;20066;-85
2020/12/03 01:39:46;;;;;;;106.10;27.95;;;;;;;-2.74;100.00;98023.97;4980126;28;20088;-85
2020/12/03 01:42:13;;;;;;;98.18;28.27;;;;;;;-2.64;100.00;98029.16;4995216;28;20037;-85
2020/12/03 01:44:46;;;;;;;98.60;26.75;;;;;;;-2.72;100.00;98038.78;4988494;28;20031;-85
2020/12/03 01:47:23;;;;;;;102.13;27.08;;;;;;;-2.65;100.00;98032.69;4996193;28;20113;-86
2020/12/03 01:49:49;;;;;;;133.88;27.63;;;;;;;-2.75;100.00;98023.97;4986338;28;20065;-86
2020/12/03 01:52:15;;;;;;;124.40;25.25;;;;;;;-2.72;100.00;98028.31;4987638;28;20038;-86
2020/12/03 01:54:41;;;;;;;130.95;28.90;;;;;;;-2.81;100.00;98037.06;4987226;28;20030;-86
2020/12/03 01:57:09;;;;;;;114.13;27.10;;;;;;;-2.74;100.00;98033.59;4995669;28;20027;-86
2020/12/03 01:59:44;;;;;;;123.05;26.40;;;;;;;-2.78;100.00;98035.31;4997692;28;20037;-86
2020/12/03 02:02:12;;;;;;;105.28;26.52;;;;;;;-2.68;100.00;98036.19;4991378;28;20146;-85
2020/12/03 02:04:38;;;;;;;93.85;27.38;;;;;;;-2.75;100.00;98027.47;4987112;28;20490;-86
2020/12/03 02:07:07;;;;;;;104.05;25.92;;;;;;;-2.72;100.00;98015.25;4995447;28;20034;-86
2020/12/03 02:09:33;;;;;;;166.88;26.65;;;;;;;-2.76;100.00;98019.59;4995247;28;20065;-86
2020/12/03 02:11:59;;;;;;;104.13;24.52;;;;;;;-2.90;100.00;98006.56;4976067;28;20031;-85
2020/12/03 02:14:25;;;;;;;128.50;30.05;;;;;;;-2.77;100.00;98017.88;5001760;28;20049;-85
2020/12/03 02:16:51;;;;;;;139.75;30.95;;;;;;;-2.80;100.00;98016.13;4998388;28;20045;-86
2020/12/03 02:19:22;;;;;;;139.48;28.13;;;;;;;-2.75;100.00;98017.00;4998074;28;20173;-86
2020/12/03 02:22:14;;;;;;;214.48;29.83;;;;;;;-2.83;100.00;98017.91;4987786;28;20034;-86
2020/12/03 02:24:41;;;;;;;150.77;28.95;;;;;;;-2.78;100.00;97997.81;4967293;28;20086;-85
2020/12/03 02:27:13;;;;;;;114.35;33.00;;;;;;;-2.78;100.00;98003.91;4993075;28;20026;-85
2020/12/03 02:29:39;;;;;;;131.88;33.47;;;;;;;-2.65;100.00;98010.00;5000460;28;20405;-86
2020/12/03 02:32:05;;;;;;;134.05;33.35;;;;;;;-2.68;100.00;98009.13;5017706;28;20041;-87
2020/12/03 02:34:30;;;;;;;115.97;31.27;;;;;;;-2.65;100.00;97998.66;5001033;28;20029;-85
2020/12/03 02:36:59;;;;;;;116.22;28.63;;;;;;;-2.71;100.00;97996.06;5001656;28;20087;-85
2020/12/03 02:39:25;;;;;;;123.00;30.48;;;;;;;-2.74;100.00;97999.56;5000946;28;20035;-85
2020/12/03 02:41:52;;;;;;;95.07;26.70;;;;;;;-2.69;100.00;97996.91;5001461;28;20515;-85
2020/12/03 02:44:18;;;;;;;138.77;27.25;;;;;;;-2.78;100.00;97975.13;5000687;28;20029;-86
2020/12/03 02:46:44;;;;;;;101.63;27.38;;;;;;;-2.75;100.00;97977.75;5000848;28;20124;-86
2020/12/03 02:49:10;;;;;;;104.18;27.65;;;;;;;-2.63;100.00;97986.41;5001554;28;20091;-86
2020/12/03 02:51:37;;;;;;;89.38;25.58;;;;;;;-2.65;100.00;97970.72;5001307;28;20029;-86
2020/12/03 02:54:03;;;;;;;99.78;26.92;;;;;;;-2.69;100.00;97976.84;5001500;28;20029;-86
2020/12/03 02:56:29;;;;;;;119.03;27.70;;;;;;;-2.69;100.00;97978.59;5000819;28;20029;-85
2020/12/03 02:58:55;;;;;;;115.25;29.55;;;;;;;-2.68;100.00;97975.09;5000565;28;20083;-86
2020/12/03 03:01:20;;;;;;;111.88;30.73;;;;;;;-2.72;100.00;97970.75;5016992;28;20041;-86
2020/12/03 03:03:46;;;;;;;96.47;26.67;;;;;;;-2.71;100.00;97969.88;5000962;28;20051;-86
2020/12/03 03:06:12;;;;;;;105.88;27.10;;;;;;;-2.73;100.00;97975.09;5001083;28;20095;-86
2020/12/03 03:08:37;;;;;;;129.63;26.23;;;;;;;-2.97;100.00;97959.47;5001240;28;20064;-85
2020/12/03 03:11:03;;;;;;;127.30;26.70;;;;;;;-3.03;100.00;97978.69;5001418;28;20037;-85
2020/12/03 03:13:28;;;;;;;111.03;27.67;;;;;;;-2.92;100.00;97976.03;5000451;28;20036;-86
2020/12/03 03:15:55;;;;;;;96.15;24.85;;;;;;;-2.85;100.00;97972.53;5000541;28;20124;-86
2020/12/03 03:18:21;;;;;;;107.47;24.85;;;;;;;-2.86;100.00;97966.41;5001151;28;20421;-86
2020/12/03 03:20:47;;;;;;;107.65;24.17;;;;;;;-2.92;100.00;97971.66;5000715;28;20148;-86
2020/12/03 03:23:15;;;;;;;122.25;26.02;;;;;;;-2.91;100.00;97978.66;5017942;28;20037;-85
2020/12/03 03:25:41;;;;;;;103.32;25.75;;;;;;;-2.84;100.00;97959.44;5001263;28;20504;-85
2020/12/03 03:28:06;;;;;;;99.13;24.77;;;;;;;-2.75;100.00;97969.00;5000349;28;20050;-86
2020/12/03 03:30:32;;;;;;;113.75;23.25;;;;;;;-2.63;100.00;97974.22;5000456;28;20514;-86
2020/12/03 03:32:57;;;;;;;85.15;23.08;;;;;;;-2.74;100.00;97966.38;5000927;28;20515;-86
2020/12/03 03:35:23;;;;;;;78.93;22.48;;;;;;;-2.80;100.00;97976.03;5000200;28;20140;-86
2020/12/03 03:37:49;;;;;;;83.85;22.50;;;;;;;-2.90;100.00;97951.63;5000314;28;20030;-86
2020/12/03 03:40:15;;;;;;;71.22;20.90;;;;;;;-2.74;100.00;97971.59;5000055;28;20036;-86
2020/12/03 03:42:42;;;;;;;80.90;21.73;;;;;;;-2.68;100.00;97975.09;4999619;28;20036;-86
2020/12/03 03:45:08;;;;;;;109.47;23.25;;;;;;;-2.70;100.00;97977.72;5000121;28;20037;-86
2020/12/03 03:47:34;;;;;;;70.40;21.42;;;;;;;-2.80;100.00;97970.78;4999552;28;20021;-87
2020/12/03 03:49:59;;;;;;;144.13;22.42;;;;;;;-2.88;100.00;97973.41;4999780;28;20028;-86
2020/12/03 03:52:25;;;;;;;85.88;22.13;;;;;;;-2.78;100.00;97985.59;4999630;28;20413;-87
2020/12/03 03:54:51;;;;;;;170.68;23.50;;;;;;;-2.80;100.00;97978.63;5016045;28;20607;-88
2020/12/03 03:57:17;;;;;;;81.70;21.27;;;;;;;-2.91;100.00;97968.19;4999422;28;20038;-87
2020/12/03 03:59:48;;;;;;;114.03;21.65;;;;;;;-2.93;100.00;97964.72;4998858;28;20061;-87
2020/12/03 04:02:21;;;;;;;60.38;15.95;;;;;;;-2.95;100.00;97969.06;5000557;28;20029;-87
2020/12/03 04:04:47;;;;;;;98.00;22.02;;;;;;;-2.96;100.00;97954.25;4999348;28;20091;-87
2020/12/03 04:07:14;;;;;;;81.57;23.25;;;;;;;-2.92;100.00;97955.97;5015896;28;20025;-87
2020/12/03 04:09:40;;;;;;;75.00;21.25;;;;;;;-2.83;100.00;97958.56;4999504;28;20053;-87
2020/12/03 04:12:06;;;;;;;77.20;21.73;;;;;;;-2.80;100.00;97965.56;4999329;28;20049;-86
2020/12/03 04:14:33;;;;;;;75.22;22.63;;;;;;;-2.82;100.00;97951.56;4999177;28;20568;-87
2020/12/03 04:16:58;;;;;;;82.20;20.10;;;;;;;-2.88;100.00;97952.47;4999343;28;20029;-86
2020/12/03 04:19:24;;;;;;;90.85;23.42;;;;;;;-3.26;100.00;97949.06;5015418;28;20408;-87
2020/12/03 04:21:50;;;;;;;80.30;23.60;;;;;;;-3.13;100.00;97939.44;4999026;28;20036;-87
2020/12/03 04:24:15;;;;;;;65.97;21.38;;;;;;;-3.01;100.00;97942.91;4999494;28;20029;-86
2020/12/03 04:26:41;;;;;;;64.43;20.98;;;;;;;-2.97;100.00;97942.03;5000005;28;20108;-86
2020/12/03 04:29:07;;;;;;;74.82;24.25;;;;;;;-2.87;100.00;97942.88;4999719;28;20053;-87
2020/12/03 04:31:33;;;;;;;71.80;20.65;;;;;;;-2.99;100.00;97950.78;4999634;28;20021;-86
2020/12/03 04:33:59;;;;;;;73.00;19.80;;;;;;;-3.04;100.00;97966.47;4999383;28;20029;-87
2020/12/03 04:36:24;;;;;;;107.75;22.13;;;;;;;-3.08;100.00;97949.06;4999237;28;20060;-87
2020/12/03 04:38:50;;;;;;;79.45;18.73;;;;;;;-3.19;100.00;97939.47;4999338;28;20037;-85
2020/12/03 04:41:17;;;;;;;61.05;20.70;;;;;;;-3.06;100.00;97951.66;5015714;28;20053;-86
2020/12/03 04:43:45;;;;;;;65.88;20.67;;;;;;;-3.11;100.00;97935.09;4998875;28;20041;-85
2020/12/03 04:46:30;;;;;;;68.35;21.17;;;;;;;-2.88;100.00;97951.59;5015220;28;20045;-85
2020/12/03 04:49:24;;;;;;;73.97;19.23;;;;;;;-2.89;100.00;97939.41;4998782;28;20409;-86
2020/12/03 04:52:02;;;;;;;62.25;18.55;;;;;;;-2.85;100.00;97938.50;5015353;28;20048;-86
2020/12/03 04:54:36;;;;;;;74.05;20.35;;;;;;;-2.93;100.00;97946.41;4999037;28;20037;-87
2020/12/03 04:57:14;;;;;;;87.93;23.30;;;;;;;-3.07;100.00;97935.06;4998759;28;20033;-85
2020/12/03 04:59:51;;;;;;;108.85;27.83;;;;;;;-3.06;100.00;97936.81;5020405;28;20036;-87
2020/12/03 05:02:32;;;;;;;103.38;20.58;;;;;;;-3.21;100.00;97908.09;4998664;28;20520;-87
2020/12/03 05:05:20;;;;;;;98.95;29.55;;;;;;;-3.29;100.00;97921.16;5014798;28;20378;-87
2020/12/03 05:07:50;;;;;;;75.82;21.55;;;;;;;-3.11;100.00;97917.66;4998602;28;20025;-86
2020/12/03 05:10:19;;;;;;;109.57;28.77;;;;;;;-3.05;100.00;97933.34;4998330;28;20099;-87
2020/12/03 05:12:45;;;;;;;92.50;25.00;;;;;;;-3.06;100.00;97925.50;5015848;28;20029;-87
2020/12/03 05:15:31;;;;;;;84.18;19.70;;;;;;;-3.04;100.00;97922.00;4999289;28;20401;-87
2020/12/03 05:18:30;;;;;;;84.65;21.70;;;;;;;-3.00;100.00;97921.13;4999081;28;20025;-87
2020/12/03 05:20:57;;;;;;;72.15;21.08;;;;;;;-2.90;100.00;97922.84;5014467;28;20136;-86
2020/12/03 05:23:27;;;;;;;77.25;19.75;;;;;;;-2.90;100.00;97917.59;5000210;28;20033;-87
2020/12/03 05:25:55;;;;;;;58.38;19.15;;;;;;;-2.97;100.00;97909.75;5019096;28;20116;-85
2020/12/03 05:28:20;;;;;;;69.63;19.33;;;;;;;-2.88;100.00;97925.44;4999733;28;20085;-87
2020/12/03 05:30:50;;;;;;;97.63;29.58;;;;;;;-3.20;100.00;97915.06;5015826;28;20096;-87
2020/12/03 05:33:15;;;;;;;82.38;22.10;;;;;;;-3.25;100.00;97897.63;4996011;28;20105;-86
2020/12/03 05:35:41;;;;;;;126.18;21.30;;;;;;;-3.22;100.00;97913.31;4987532;28;20481;-87
2020/12/03 05:38:21;;;;;;;70.53;19.77;;;;;;;-3.24;100.00;97908.09;4990964;28;20038;-86
2020/12/03 05:41:00;;;;;;;84.22;22.98;;;;;;;-3.18;100.00;97904.59;4999901;28;20053;-87
2020/12/03 05:43:27;;;;;;;76.88;22.65;;;;;;;-3.32;100.00;97904.63;4999950;28;20033;-86
2020/12/03 05:45:53;;;;;;;84.68;23.67;;;;;;;-3.22;100.00;97898.50;4992278;28;20034;-86
2020/12/03 05:48:20;;;;;;;86.97;24.35;;;;;;;-3.18;100.00;97909.81;4996498;28;20414;-86
2020/12/03 05:50:45;;;;;;;99.50;30.42;;;;;;;-3.12;100.00;97915.03;4996594;28;20030;-87
2020/12/03 05:53:20;;;;;;;89.00;22.95;;;;;;;-3.19;100.00;97914.19;5016052;28;20037;-88
2020/12/03 05:55:47;;;;;;;76.07;23.02;;;;;;;-3.18;100.00;97909.81;4984350;28;20054;-87
2020/12/03 05:58:27;;;;;;;82.10;24.75;;;;;;;-3.04;100.00;97929.84;4998349;28;20045;-86
2020/12/03 06:01:07;;;;;;;62.58;18.92;;;;;;;-2.96;100.00;97925.47;4991628;28;20121;-86
2020/12/03 06:04:03;;;;;;;66.30;20.48;;;;;;;-2.90;100.00;97916.72;4980247;28;20096;-88
2020/12/03 06:07:06;;;;;;;64.85;21.60;;;;;;;-2.93;100.00;97927.22;4973248;28;20033;-86
2020/12/03 06:09:47;;;;;;;69.00;19.83;;;;;;;-3.10;100.00;97940.31;5004063;28;20026;-86
2020/12/03 06:12:18;;;;;;;62.17;21.48;;;;;;;-3.06;100.00;97935.94;5014988;28;20164;-87
2020/12/03 06:15:15;;;;;;;80.75;24.35;;;;;;;-3.03;100.00;97934.22;5000469;28;20030;-87
2020/12/03 06:18:18;;;;;;;70.15;22.38;;;;;;;-3.03;100.00;97923.75;5003034;28;20031;-87
2020/12/03 06:21:19;;;;;;;76.57;22.48;;;;;;;-3.01;100.00;97939.41;4995222;28;20036;-86
2020/12/03 06:23:58;;;;;;;73.18;22.35;;;;;;;-3.18;100.00;97923.78;4992503;28;20039;-87
2020/12/03 06:26:40;;;;;;;70.55;22.95;;;;;;;-3.22;100.00;97948.19;4979273;28;20041;-87
2020/12/03 06:29:10;;;;;;;81.65;24.80;;;;;;;-3.34;100.00;97911.59;5011896;28;20042;-86
2020/12/03 06:32:01;;;;;;;70.85;21.30;;;;;;;-3.12;100.00;97943.81;5015481;28;20030;-87
2020/12/03 06:35:16;;;;;;;75.72;22.65;;;;;;;-3.41;100.00;97861.06;5014299;28;20026;-86
2020/12/03 06:38:15;;;;;;;89.88;26.40;;;;;;;-3.25;100.00;97908.97;5008292;28;20034;-87
2020/12/03 06:40:46;;;;;;;92.88;27.75;;;;;;;-3.46;100.00;97898.56;4972264;28;20046;-86
2020/12/03 06:43:27;;;;;;;110.72;35.25;;;;;;;-3.47;100.00;97896.81;4996415;28;20042;-87
2020/12/03 06:46:00;;;;;;;126.88;33.15;;;;;;;-3.26;100.00;97890.69;4995058;28;20045;-77
2020/12/03 06:48:44;;;;;;;104.55;31.00;;;;;;;-2.73;100.00;97941.06;5011323;28;20033;-78
2020/12/03 06:51:29;;;;;;;108.30;33.85;;;;;;;-2.48;100.00;97936.63;5010813;28;20127;-84
2020/12/03 06:54:03;;;;;;;88.60;27.70;;;;;;;-2.34;99.07;97932.19;4995077;28;20038;-85
2020/12/03 06:56:48;;;;;;;85.78;27.67;;;;;;;-2.43;98.01;97919.16;5013904;28;20025;-84
2020/12/03 07:00:11;;;;;;;;;;;;;;;;;;;;;
2020/12/03 07:03:09;;;;;;;89.90;29.92;;;;;;;-2.69;96.64;97850.34;5008425;28;20048;-86
2020/12/03 07:06:06;;;;;;;85.28;26.70;;;;;;;-2.19;96.77;97934.72;5006083;28;20049;-84
2020/12/03 07:08:50;;;;;;;69.65;23.60;;;;;;;-2.18;96.24;97933.00;4994891;28;20083;-84
2020/12/03 07:11:40;;;;;;;66.90;21.48;;;;;;;-2.44;96.77;97927.88;5009659;28;20501;-76
2020/12/03 07:14:28;;;;;;;72.10;20.20;;;;;;;-2.44;97.05;97930.50;5009558;28;20034;-78
2020/12/03 07:17:17;;;;;;;71.18;22.67;;;;;;;-2.32;97.34;97938.28;5010820;28;20116;-79
2020/12/03 07:20:07;;;;;;;77.40;24.27;;;;;;;-2.28;96.70;97929.53;5009762;28;20037;-77
2020/12/03 07:22:36;;;;;;;123.88;27.83;;;;;;;-2.30;96.14;97921.69;5009424;28;20033;-78
2020/12/03 07:25:31;;;;;;;108.93;28.25;;;;;;;-2.49;97.35;97914.78;5009701;28;20053;-77
2020/12/03 07:28:00;;;;;;;77.45;24.80;;;;;;;-2.33;98.16;97926.94;5004995;28;20536;-79
2020/12/03 07:30:48;;;;;;;80.70;24.27;;;;;;;-2.15;96.99;97918.09;5011639;28;20026;-77
2020/12/03 07:33:29;;;;;;;102.65;25.48;;;;;;;-2.13;95.79;97926.84;5011068;28;20030;-78
2020/12/03 07:36:16;;;;;;;76.45;25.08;;;;;;;-2.02;95.86;97932.00;5010892;28;20104;-77
2020/12/03 07:38:50;;;;;;;83.70;22.80;;;;;;;-2.22;95.30;97913.78;4980874;28;20031;-79
2020/12/03 07:41:22;;;;;;;70.55;24.13;;;;;;;-2.50;96.75;97881.66;4991579;28;20056;-79
2020/12/03 07:44:13;;;;;;;;;;;;;;;;;;;;;
2020/12/03 07:46:41;;;;;;;89.20;25.50;;;;;;;-2.06;95.27;97920.66;5009324;28;20277;-77
2020/12/03 07:49:10;;;;;;;102.75;30.98;;;;;;;-2.38;95.89;97860.63;4993743;28;20092;-78
2020/12/03 07:51:36;;;;;;;119.80;31.05;;;;;;;-2.35;95.57;97881.56;4993097;28;20052;-77
2020/12/03 07:54:17;;;;;;;135.38;38.78;;;;;;;-1.92;95.28;97928.44;5009586;28;20485;-78
2020/12/03 07:56:45;;;;;;;122.90;35.53;;;;;;;-1.67;94.77;97928.25;5010132;28;20036;-77
2020/12/03 07:59:23;;;;;;;118.65;37.30;;;;;;;-1.43;93.91;97928.91;4992335;28;20179;-76
2020/12/03 08:01:53;;;;;;;109.40;34.08;;;;;;;-1.28;92.50;97944.53;5010074;28;20259;-77
2020/12/03 08:04:18;;;;;;;116.28;35.40;;;;;;;-1.18;92.52;97940.94;5008507;28;20494;-76
2020/12/03 08:07:12;;;;;;;122.80;37.72;;;;;;;-1.21;91.31;97939.22;5009353;28;20484;-77
2020/12/03 08:09:46;;;;;;;105.63;36.83;;;;;;;-1.08;90.32;97911.09;5003227;28;20034;-77
2020/12/03 08:12:20;;;;;;;89.88;30.98;;;;;;;-0.84;89.39;97926.59;5012403;28;20025;-88
2020/12/03 08:14:48;;;;;;;77.28;26.52;;;;;;;-1.08;89.77;97908.47;4996614;28;20113;-88
2020/12/03 08:38:01;;;;;;;109.75;37.05;;;;;;;-0.20;83.97;97891.59;5121418;27;20439;-88
2020/12/03 08:40:31;;;;;;;109.28;37.20;;;;;;;-0.22;84.32;97917.06;5043766;28;20029;-88
2020/12/03 08:42:57;;;;;;;123.47;39.53;;;;;;;-0.06;83.88;97945.72;5067489;28;20038;-77
2020/12/03 08:45:23;;;;;;;116.78;38.83;;;;;;;0.10;83.35;97949.00;5128127;27;20031;-77
2020/12/03 08:47:51;;;;;;;120.57;39.42;;;;;;;0.11;82.09;97934.97;5086487;28;20204;-77
2020/12/03 08:50:20;;;;;;;160.13;54.80;;;;;;;0.52;79.95;97939.59;5050798;28;20351;-79
2020/12/03 08:52:46;;;;;;;120.10;41.65;;;;;;;0.59;80.03;97946.47;5085133;28;20025;-77
2020/12/03 08:55:12;;;;;;;123.15;42.72;;;;;;;0.65;80.86;97949.00;5041912;28;20029;-77
2020/12/03 08:57:39;;;;;;;124.78;43.42;;;;;;;0.45;81.87;97943.22;5042699;28;20048;-77
2020/12/03 09:00:16;;;;;;;126.50;41.58;;;;;;;0.10;83.43;97929.72;5090960;28;20371;-79
2020/12/03 09:02:45;;;;;;;134.07;44.80;;;;;;;0.14;83.92;97927.03;5046066;28;20025;-77
2020/12/03 09:05:13;;;;;;;134.45;46.13;;;;;;;0.29;85.24;97931.19;5024066;28;20106;-78
2020/12/03 09:07:47;;;;;;;138.68;48.20;;;;;;;0.47;82.42;97925.63;5040256;28;20033;-77
2020/12/03 09:10:13;;;;;;;137.27;48.83;;;;;;;0.53;82.53;97915.88;5024071;28;20650;-77
2020/12/03 09:12:40;;;;;;;116.43;38.97;;;;;;;0.67;82.18;97917.41;5116900;28;20478;-80
2020/12/03 09:15:08;;;;;;;104.68;35.22;;;;;;;0.47;82.49;97905.47;5114552;28;20034;-77
2020/12/03 09:17:35;;;;;;;121.35;40.40;;;;;;;0.14;81.55;97913.88;5024041;28;20146;-78
2020/12/03 09:20:07;;;;;;;117.95;39.28;;;;;;;-0.27;85.17;97903.09;5042137;28;20087;-78
2020/12/03 09:22:34;;;;;;;112.55;37.15;;;;;;;-0.26;86.66;97904.84;5107339;27;20035;-76
2020/12/03 09:25:03;;;;;;;106.35;35.97;;;;;;;-0.11;87.33;97905.50;5072411;28;20033;-77
2020/12/03 09:27:29;;;;;;;110.82;35.50;;;;;;;0.09;86.17;97907.84;5056967;28;20489;-78
2020/12/03 09:29:58;;;;;;;107.32;35.13;;;;;;;0.27;82.99;97902.31;5123420;28;20069;-77
2020/12/03 09:32:25;;;;;;;121.65;43.55;;;;;;;0.51;81.82;97907.16;5057558;28;20035;-89
2020/12/03 09:38:08;;;;;;;122.80;39.22;;;;;;;0.20;83.39;97905.03;4999483;28;20034;-88
2020/12/03 09:40:34;;;;;;;134.13;42.63;;;;;;;-0.04;84.76;97907.16;4990453;28;20164;-89
2020/12/03 09:43:11;;;;;;;167.27;54.45;;;;;;;0.08;84.92;97898.22;5040308;28;20052;-89
2020/12/03 09:45:47;;;;;;;145.63;48.35;;;;;;;0.26;83.16;97863.72;5025154;28;20055;-89
2020/12/03 09:48:32;;;;;;;156.85;54.08;;;;;;;0.16;83.69;97859.50;5036454;28;20055;-89
2020/12/03 09:50:58;;;;;;;166.77;54.00;;;;;;;0.27;83.26;97854.94;5056225;28;20040;-88
2020/12/03 09:53:24;;;;;;;171.10;55.63;;;;;;;0.63;84.45;97878.88;5059167;28;20100;-89
2020/12/03 09:55:50;;;;;;;151.52;47.83;;;;;;;0.81;83.61;97862.75;5042361;28;20090;-89
2020/12/03 09:58:19;;;;;;;135.57;46.28;;;;;;;1.46;81.66;97883.41;5034980;28;20124;-86
2020/12/03 10:00:51;;;;;;;168.80;52.53;;;;;;;1.25;80.95;97861.91;5028953;28;20077;-89
2020/12/03 10:03:56;;;;;;;166.20;54.20;;;;;;;1.93;78.72;97881.53;4988994;28;20047;-89
2020/12/03 10:06:30;;;;;;;170.75;56.33;;;;;;;1.64;80.19;97864.56;5005326;28;20040;-87
2020/12/03 10:09:17;;;;;;;187.98;63.88;;;;;;;1.46;80.43;97867.59;5001841;28;20052;-89
2020/12/03 10:12:01;;;;;;;191.43;62.65;;;;;;;1.32;79.97;97845.09;5053811;28;20109;-90
2020/12/03 10:15:01;;;;;;;224.30;71.28;;;;;;;0.60;81.50;97852.63;5058878;28;20030;-88
2020/12/03 10:17:58;;;;;;;199.98;64.95;;;;;;;0.60;84.19;97821.03;5042568;28;20065;-88
2020/12/03 10:20:24;;;;;;;214.90;70.55;;;;;;;0.97;83.96;97833.50;5017277;28;20489;-89
2020/12/03 10:23:12;;;;;;;212.32;65.93;;;;;;;1.03;83.02;97845.66;5037371;28;20043;-89
2020/12/03 10:25:39;;;;;;;191.30;62.05;;;;;;;0.17;84.58;97836.72;5066827;28;20047;-87
2020/12/03 10:28:18;;;;;;;185.77;60.20;;;;;;;0.46;86.33;97835.31;5080960;28;20036;-89
2020/12/03 10:30:45;;;;;;;175.02;57.10;;;;;;;0.49;86.12;97801.03;5063922;28;20018;-88
2020/12/03 10:33:15;;;;;;;132.60;42.67;;;;;;;0.50;84.76;97823.84;5011828;28;20046;-88
2020/12/03 10:35:47;;;;;;;121.68;41.58;;;;;;;0.35;84.87;97795.19;5062245;28;20585;-91
2020/12/03 10:38:22;;;;;;;110.55;38.28;;;;;;;0.81;85.05;97825.91;5077330;28;20047;-87
2020/12/03 10:40:55;;;;;;;119.40;42.85;;;;;;;0.55;84.48;97813.25;5051611;28;20037;-88
2020/12/03 10:43:46;;;;;;;145.07;48.05;;;;;;;0.65;86.47;97819.22;5063599;28;20057;-89
2020/12/03 10:46:33;;;;;;;139.35;48.30;;;;;;;0.78;86.13;97799.63;5045081;28;20128;-90
2020/12/03 10:49:01;;;;;;;182.77;57.42;;;;;;;0.42;85.92;97790.69;5100689;28;20417;-88
2020/12/03 10:51:27;;;;;;;129.57;40.67;;;;;;;0.54;86.22;97793.09;5104523;28;20406;-88
2020/12/03 10:53:53;;;;;;;106.72;38.58;;;;;;;1.00;85.52;97812.34;5018272;28;20033;-88
2020/12/03 10:56:29;;;;;;;100.30;36.33;;;;;;;1.25;83.84;97798.69;5040447;28;20168;-88
2020/12/03 10:59:43;;;;;;;;;;;;;;;;;;;;;
2020/12/03 11:04:45;;;;;;;77.60;27.67;;;;;;;0.84;83.22;97774.06;5266372;22;20058;-86
2020/12/03 11:07:35;;;;;;;93.38;31.27;;;;;;;1.19;82.55;97802.31;5124142;27;20031;-86
2020/12/03 11:14:10;;;;;;;131.32;45.42;;;;;;;1.11;82.53;97798.13;5094254;28;20038;-86
2020/12/03 11:16:59;;;;;;;143.65;54.08;;;;;;;1.01;83.09;97750.91;5100199;28;20028;-87
2020/12/03 11:19:36;;;;;;;111.93;38.58;;;;;;;1.33;82.04;97797.59;5135822;27;20143;-87
2020/12/03 11:22:36;;;;;;;126.78;43.65;;;;;;;1.09;81.92;97756.88;5108841;27;20022;-87
2020/12/03 11:25:27;;;;;;;153.05;52.53;;;;;;;0.48;84.12;97767.75;5052671;28;20052;-86
2020/12/03 11:28:13;;;;;;;151.05;53.13;;;;;;;0.48;85.54;97775.66;5138164;27;20027;-87
2020/12/03 11:33:23;;;;;;;146.73;48.15;;;;;;;0.72;85.15;97760.28;5163452;22;20105;-87
2020/12/03 11:35:49;;;;;;;147.02;50.38;;;;;;;0.99;84.46;97762.34;5095741;28;20039;-87
2020/12/03 11:38:20;;;;;;;142.90;49.95;;;;;;;1.42;83.42;97759.66;5077450;28;20028;-86
2020/12/03 11:40:54;;;;;;;144.07;51.17;;;;;;;1.55;82.41;97761.97;5075085;28;20092;-86
2020/12/03 11:44:21;;;;;;;128.00;41.50;;;;;;;0.87;83.24;97731.88;5069918;28;20093;-85
2020/12/03 11:49:31;;;;;;;140.60;47.25;;;;;;;1.02;85.27;97744.72;5101609;28;20027;-85
2020/12/03 11:52:28;;;;;;;;;;;;;;;;;;;;;
2020/12/03 11:55:41;;;;;;;139.07;49.00;;;;;;;0.95;83.00;97671.19;5093252;28;20074;-85
2020/12/03 11:58:30;;;;;;;138.27;51.15;;;;;;;1.62;82.72;97739.00;5084834;28;20051;-86
2020/12/03 12:01:13;;;;;;;142.18;50.45;;;;;;;1.13;83.28;97702.38;5078692;28;20107;-86
2020/12/03 12:03:48;;;;;;;153.18;53.97;;;;;;;0.97;83.73;97687.78;5074893;28;20023;-85
2020/12/03 12:06:32;;;;;;;138.88;50.38;;;;;;;1.19;84.50;97739.09;5086520;28;20036;-88
2020/12/03 12:12:27;;;;;;;172.57;62.15;;;;;;;1.14;83.33;97677.72;5012057;28;20038;-87
2020/12/03 12:14:55;;;;;;;148.52;53.80;;;;;;;0.82;82.57;97653.91;4990963;28;20034;-87
2020/12/03 12:17:26;;;;;;;161.45;58.92;;;;;;;0.81;83.38;97652.16;4985794;28;20093;-86
2020/12/03 12:26:29;;;;;;;143.55;53.53;;;;;;;1.48;83.55;97704.16;5117723;28;20042;-85
2020/12/03 12:31:38;;;;;;;146.20;58.22;;;;;;;2.44;75.69;97618.97;5088221;28;20044;-86